Rechercher aéroport 
image banner adimage banner ad
image banner ad

SVPG - El Progreso Airport

Situé à Peninsula De Paraguana, Venezuela

ICAO - SVPG, IATA -

Données fournies par Airmate  

Information générale

Coordonnées: N11°57'37" W70°32'16"
Élévation : 984 feet MSL.
 
Voir autres Aéroports à Apure

Données opérationnelles

Accessible au public
Heure actuelle UTC:
Heure actuelle locale:
TAF: TAF SVJC 261600Z 2612/2712 14008KT 9999 SCT016 TX34/2618Z TN24/2608Z BECMG 2612/2616 07003KT 9999 BKN016
Voir NOTAMs / SUP AIP / TFR affectant cet aéroport [VIEW]
Fréquences de communication: [VIEW]

Pistes:

Coordonnées de l'aéroport

Adresse: Peninsula De Paraguana Venezuela

Vue satellite de SVPG